createdAt,value
2023-03-12T00:01:24.071Z,1.17
2023-03-12T00:06:25.777Z,1.15
2023-03-12T00:11:27.685Z,1.15
2023-03-12T00:16:30.724Z,1.11
2023-03-12T00:21:32.408Z,1.10
2023-03-12T00:26:34.110Z,1.13
2023-03-12T00:31:37.411Z,1.08
2023-03-12T00:36:41.191Z,1.06
2023-03-12T00:41:42.982Z,1.02
2023-03-12T00:46:46.103Z,1.01
2023-03-12T00:51:48.089Z,0.99
2023-03-12T00:56:49.896Z,0.94
2023-03-12T01:01:53.018Z,0.95
2023-03-12T01:06:55.060Z,0.82
2023-03-12T01:11:56.796Z,0.81
2023-03-12T01:16:59.916Z,0.84
2023-03-12T01:22:01.769Z,0.82
2023-03-12T01:27:04.685Z,0.82
2023-03-12T01:32:08.113Z,0.86
2023-03-12T01:37:09.847Z,0.86
2023-03-12T01:42:11.600Z,0.86
2023-03-12T01:47:14.976Z,0.86
2023-03-12T01:52:17.443Z,0.86
2023-03-12T01:57:24.590Z,0.93
2023-03-12T02:02:29.772Z,0.94
2023-03-12T02:07:34.648Z,0.94
2023-03-12T02:12:36.337Z,0.91
2023-03-12T02:17:40.503Z,0.90
2023-03-12T02:22:44.394Z,0.88
2023-03-12T02:27:47.430Z,0.86
2023-03-12T02:32:49.670Z,0.82
2023-03-12T02:37:54.385Z,0.81
2023-03-12T02:42:58.079Z,0.81
2023-03-12T02:48:00.009Z,0.80
2023-03-12T02:53:01.794Z,0.79
2023-03-12T02:58:05.073Z,0.75
2023-03-12T03:03:06.862Z,0.77
2023-03-12T03:08:08.593Z,0.71
2023-03-12T03:13:11.677Z,0.68
2023-03-12T03:18:13.604Z,0.65
2023-03-12T03:23:15.357Z,0.57
2023-03-12T03:28:18.533Z,0.46
2023-03-12T03:33:20.421Z,0.49
2023-03-12T03:38:22.549Z,0.48
2023-03-12T03:43:25.734Z,0.46
2023-03-12T03:48:27.778Z,0.32
2023-03-12T03:53:29.764Z,0.30
2023-03-12T03:58:33.262Z,0.22
2023-03-12T04:03:35.325Z,0.17
2023-03-12T04:08:38.917Z,0.10
2023-03-12T04:13:45.499Z,0.04
2023-03-12T04:18:49.188Z,-0.07
2023-03-12T04:23:51.879Z,-0.17
2023-03-12T04:28:57.747Z,-0.24
2023-03-12T04:33:59.664Z,-0.25
2023-03-12T04:39:01.881Z,-0.18
2023-03-12T04:44:11.615Z,-0.06
2023-03-12T04:49:14.977Z,-0.14
2023-03-12T04:54:17.769Z,-0.27
2023-03-12T04:59:20.996Z,-0.22
2023-03-12T05:04:22.961Z,-0.22
2023-03-12T05:09:25.477Z,-0.21
2023-03-12T05:14:29.124Z,-0.16
2023-03-12T05:19:31.113Z,-0.20
2023-03-12T05:24:32.988Z,-0.23
2023-03-12T05:29:37.477Z,-0.22
2023-03-12T05:34:39.332Z,-0.12
2023-03-12T05:39:46.735Z,-0.12
2023-03-12T05:44:52.295Z,-0.08
2023-03-12T05:49:56.283Z,-0.01
2023-03-12T05:54:58.279Z,-0.06
2023-03-12T06:00:01.775Z,-0.08
2023-03-12T06:05:14.925Z,-0.16
2023-03-12T06:10:17.229Z,-0.01
2023-03-12T06:15:21.142Z,-0.03
2023-03-12T06:20:23.062Z,-0.04
2023-03-12T06:25:24.898Z,-0.06
2023-03-12T06:30:28.087Z,0.11
2023-03-12T06:35:30.019Z,0.27
2023-03-12T06:40:32.955Z,0.52
2023-03-12T06:45:36.072Z,0.64
2023-03-12T06:50:37.885Z,0.85
2023-03-12T06:55:39.583Z,1.09
2023-03-12T07:00:42.755Z,1.55
2023-03-12T07:05:44.714Z,1.83
2023-03-12T07:10:46.478Z,1.90
2023-03-12T07:15:49.848Z,2.12
2023-03-12T07:20:51.954Z,2.55
2023-03-12T07:25:53.833Z,2.35
2023-03-12T07:31:01.243Z,3.09
2023-03-12T07:36:03.475Z,4.57
2023-03-12T07:41:05.302Z,6.54
2023-03-12T07:46:08.381Z,5.06
2023-03-12T07:51:10.062Z,4.31
2023-03-12T07:56:11.936Z,3.91
2023-03-12T08:01:15.260Z,3.90
2023-03-12T08:06:17.046Z,4.17
2023-03-12T08:11:18.873Z,5.11
2023-03-12T08:16:21.934Z,5.15
2023-03-12T08:21:23.885Z,5.35
2023-03-12T08:26:25.634Z,6.05
2023-03-12T08:31:28.980Z,6.61
2023-03-12T08:36:30.731Z,7.92
2023-03-12T08:41:32.516Z,8.19
2023-03-12T08:46:35.504Z,8.57
2023-03-12T08:51:37.238Z,7.79
2023-03-12T08:56:42.293Z,6.93
2023-03-12T09:01:45.362Z,6.88
2023-03-12T09:06:47.280Z,6.40
2023-03-12T09:11:49.009Z,6.00
2023-03-12T09:16:52.150Z,6.16
2023-03-12T09:21:53.965Z,6.75
2023-03-12T09:26:55.647Z,8.49
2023-03-12T09:31:58.646Z,8.85
2023-03-12T09:37:00.332Z,9.32
2023-03-12T09:42:02.156Z,9.94
2023-03-12T09:47:07.731Z,10.71
2023-03-12T09:52:16.598Z,11.56
2023-03-12T09:57:21.046Z,12.42
2023-03-12T10:02:55.979Z,12.90
2023-03-12T10:07:58.479Z,12.24
2023-03-12T10:13:08.193Z,11.33
2023-03-12T10:18:17.286Z,11.90
2023-03-12T10:23:23.277Z,12.95
2023-03-12T10:28:28.639Z,12.35
2023-03-12T10:33:37.730Z,10.58
2023-03-12T10:38:39.394Z,9.23
2023-03-12T10:43:41.098Z,8.88
2023-03-12T10:48:44.255Z,8.48
2023-03-12T10:53:47.991Z,8.20
2023-03-12T10:58:50.939Z,7.65
2023-03-12T11:04:07.646Z,7.20
2023-03-12T11:09:17.557Z,7.17
2023-03-12T11:14:20.279Z,7.39
2023-03-12T11:19:28.766Z,7.82
2023-03-12T11:24:30.487Z,7.56
2023-03-12T11:29:33.292Z,7.36
2023-03-12T11:34:37.433Z,7.22
2023-03-12T11:39:50.933Z,7.03
2023-03-12T11:44:56.877Z,7.00
2023-03-12T11:50:06.132Z,6.87
2023-03-12T11:55:19.029Z,6.81
2023-03-12T12:00:22.533Z,7.06
2023-03-12T12:05:32.318Z,7.03
2023-03-12T12:10:37.712Z,6.93
2023-03-12T12:15:43.792Z,6.71
2023-03-12T12:20:48.897Z,6.36
2023-03-12T12:26:00.330Z,6.09
2023-03-12T12:31:08.197Z,5.93
2023-03-12T12:36:11.425Z,6.06
2023-03-12T12:41:15.409Z,6.24
2023-03-12T12:46:18.188Z,5.54
2023-03-12T12:51:22.854Z,5.47
2023-03-12T12:56:28.186Z,5.35
2023-03-12T13:01:30.069Z,5.14
2023-03-12T13:06:58.012Z,4.92
2023-03-12T13:11:59.771Z,4.82
2023-03-12T13:17:19.681Z,4.95
2023-03-12T13:22:29.352Z,4.80
2023-03-12T13:27:31.958Z,4.72
2023-03-12T13:32:38.568Z,4.51
2023-03-12T13:37:59.046Z,4.62
2023-03-12T13:43:09.292Z,4.69
2023-03-12T13:48:14.272Z,4.69
2023-03-12T13:53:20.731Z,4.62
2023-03-12T13:58:23.578Z,4.67
2023-03-12T14:03:26.318Z,4.69
2023-03-12T14:08:40.386Z,4.64
2023-03-12T14:14:04.025Z,4.66
2023-03-12T14:19:05.873Z,4.67
2023-03-12T14:24:12.726Z,4.52
2023-03-12T14:29:19.309Z,4.57
2023-03-12T14:34:22.884Z,4.62
2023-03-12T14:39:28.128Z,4.59
2023-03-12T14:44:30.627Z,4.58
2023-03-12T14:49:32.351Z,4.47
2023-03-12T14:54:35.541Z,4.57
2023-03-12T14:59:38.973Z,4.68
2023-03-12T15:04:40.736Z,4.69
2023-03-12T15:09:44.746Z,4.70
2023-03-12T15:14:46.419Z,4.81
2023-03-12T15:19:48.150Z,4.85
2023-03-12T15:24:51.145Z,4.75
2023-03-12T15:29:53.000Z,4.62
2023-03-12T15:34:55.148Z,4.69
2023-03-12T15:39:59.251Z,4.63
2023-03-12T15:45:03.207Z,4.69
2023-03-12T15:50:07.752Z,4.80
2023-03-12T15:55:22.634Z,4.72
2023-03-12T16:00:26.681Z,4.63
2023-03-12T16:05:30.201Z,4.71
2023-03-12T16:10:33.297Z,4.73
2023-03-12T16:15:37.502Z,4.71
2023-03-12T16:20:39.402Z,4.68
2023-03-12T16:25:43.098Z,4.76
2023-03-12T16:30:45.113Z,4.83
2023-03-12T16:35:46.947Z,4.92
2023-03-12T16:40:50.223Z,4.83
2023-03-12T16:45:52.532Z,4.87
2023-03-12T16:50:55.773Z,4.93
2023-03-12T16:56:00.693Z,5.00
2023-03-12T17:01:03.055Z,5.05
2023-03-12T17:06:05.499Z,5.10
2023-03-12T17:11:14.169Z,5.14
2023-03-12T17:16:16.198Z,5.29
2023-03-12T17:21:18.281Z,5.30
2023-03-12T17:26:21.591Z,5.34
2023-03-12T17:31:24.681Z,5.43
2023-03-12T17:36:26.600Z,5.49
2023-03-12T17:41:30.808Z,5.53
2023-03-12T17:46:32.722Z,5.57
2023-03-12T17:51:34.754Z,5.66
2023-03-12T17:56:37.773Z,5.64
2023-03-12T18:01:39.483Z,5.79
2023-03-12T18:06:41.150Z,5.89
2023-03-12T18:11:44.320Z,6.01
2023-03-12T18:16:47.058Z,6.00
2023-03-12T18:21:48.729Z,6.04
2023-03-12T18:26:52.169Z,6.01
2023-03-12T18:31:53.900Z,6.07
2023-03-12T18:36:55.582Z,6.10
2023-03-12T18:41:58.591Z,6.10
2023-03-12T18:47:00.328Z,6.19
2023-03-12T18:52:02.062Z,6.19
2023-03-12T18:57:05.216Z,6.26
2023-03-12T19:02:07.408Z,6.39
2023-03-12T19:07:10.650Z,6.42
2023-03-12T19:12:14.157Z,6.43
2023-03-12T19:17:15.884Z,6.47
2023-03-12T19:22:17.583Z,6.50
2023-03-12T19:27:21.035Z,6.39
2023-03-12T19:32:25.383Z,6.38
2023-03-12T19:37:29.380Z,6.33
2023-03-12T19:42:32.456Z,6.43
2023-03-12T19:47:34.210Z,6.33
2023-03-12T19:52:35.968Z,6.43
2023-03-12T19:57:39.110Z,6.49
2023-03-12T20:02:41.174Z,6.57
2023-03-12T20:07:44.240Z,6.73
2023-03-12T20:12:47.350Z,6.72
2023-03-12T20:17:49.059Z,6.56
2023-03-12T20:22:50.778Z,6.62
2023-03-12T20:27:53.826Z,6.58
2023-03-12T20:32:55.620Z,6.67
2023-03-12T20:37:57.411Z,6.69
2023-03-12T20:43:04.629Z,6.72
2023-03-12T20:48:10.035Z,6.77
2023-03-12T20:53:11.840Z,6.70
2023-03-12T20:58:14.850Z,6.84
2023-03-12T21:03:17.195Z,6.80
2023-03-12T21:08:18.922Z,6.96
2023-03-12T21:13:22.469Z,7.06
2023-03-12T21:18:25.017Z,7.14
2023-03-12T21:23:27.172Z,7.19
2023-03-12T21:28:30.957Z,7.29
2023-03-12T21:33:32.678Z,7.28
2023-03-12T21:38:34.461Z,7.30
2023-03-12T21:43:37.499Z,7.34
2023-03-12T21:48:39.375Z,7.38
2023-03-12T21:53:41.124Z,7.40
2023-03-12T21:58:44.874Z,7.42
2023-03-12T22:03:46.706Z,7.46
2023-03-12T22:08:49.162Z,7.45
2023-03-12T22:13:52.220Z,7.40
2023-03-12T22:18:53.904Z,7.35
2023-03-12T22:23:57.221Z,7.36
2023-03-12T22:29:01.213Z,7.41
2023-03-12T22:34:03.025Z,7.41
2023-03-12T22:39:05.679Z,7.37
2023-03-12T22:44:09.283Z,7.38
2023-03-12T22:49:11.061Z,7.38
2023-03-12T22:54:12.794Z,7.45
2023-03-12T22:59:15.828Z,7.40
2023-03-12T23:04:17.567Z,7.40
2023-03-12T23:09:19.419Z,7.43
2023-03-12T23:14:22.667Z,7.50
2023-03-12T23:19:24.387Z,7.40
2023-03-12T23:24:26.143Z,7.39
2023-03-12T23:29:30.588Z,7.44
2023-03-12T23:34:33.256Z,7.60
2023-03-12T23:39:44.973Z,7.67
2023-03-12T23:44:55.058Z,7.66
2023-03-12T23:49:56.819Z,7.69
2023-03-12T23:54:58.518Z,7.70
